sensor_id;sensor_type;location;lat;lon;timestamp;temperature;humidity
25112;DHT22;13092;51.996;4.458;2023-12-07T00:00:02;3.20;99.90
25112;DHT22;13092;51.996;4.458;2023-12-07T00:02:31;3.00;99.90
25112;DHT22;13092;51.996;4.458;2023-12-07T00:05:00;3.60;99.90
25112;DHT22;13092;51.996;4.458;2023-12-07T00:07:30;3.70;99.90
25112;DHT22;13092;51.996;4.458;2023-12-07T00:09:58;3.50;99.90
25112;DHT22;13092;51.996;4.458;2023-12-07T00:12:27;3.00;99.90
25112;DHT22;13092;51.996;4.458;2023-12-07T00:14:55;3.90;99.90
25112;DHT22;13092;51.996;4.458;2023-12-07T00:17:24;3.90;99.90
25112;DHT22;13092;51.996;4.458;2023-12-07T00:19:52;2.90;99.90
25112;DHT22;13092;51.996;4.458;2023-12-07T00:22:22;3.50;99.90
25112;DHT22;13092;51.996;4.458;2023-12-07T00:24:52;3.50;99.90
25112;DHT22;13092;51.996;4.458;2023-12-07T00:27:20;3.30;99.90
25112;DHT22;13092;51.996;4.458;2023-12-07T00:29:50;3.40;99.90
25112;DHT22;13092;51.996;4.458;2023-12-07T00:32:18;2.70;99.90
25112;DHT22;13092;51.996;4.458;2023-12-07T00:34:48;3.00;99.90
25112;DHT22;13092;51.996;4.458;2023-12-07T00:37:17;3.30;99.90
25112;DHT22;13092;51.996;4.458;2023-12-07T00:39:46;3.10;99.90
25112;DHT22;13092;51.996;4.458;2023-12-07T00:42:15;2.60;99.90
25112;DHT22;13092;51.996;4.458;2023-12-07T00:44:43;3.80;99.90
25112;DHT22;13092;51.996;4.458;2023-12-07T00:47:11;2.60;99.90
25112;DHT22;13092;51.996;4.458;2023-12-07T00:49:39;2.70;99.90
25112;DHT22;13092;51.996;4.458;2023-12-07T00:52:08;3.30;99.90
25112;DHT22;13092;51.996;4.458;2023-12-07T00:54:37;2.50;99.90
25112;DHT22;13092;51.996;4.458;2023-12-07T00:57:07;2.50;99.90
25112;DHT22;13092;51.996;4.458;2023-12-07T00:59:35;2.50;99.90
25112;DHT22;13092;51.996;4.458;2023-12-07T01:02:04;2.50;99.90
25112;DHT22;13092;51.996;4.458;2023-12-07T01:04:32;3.30;99.90
25112;DHT22;13092;51.996;4.458;2023-12-07T01:07:01;2.40;99.90
25112;DHT22;13092;51.996;4.458;2023-12-07T01:09:30;2.40;99.90
25112;DHT22;13092;51.996;4.458;2023-12-07T01:11:58;2.60;99.90
25112;DHT22;13092;51.996;4.458;2023-12-07T01:14:27;3.40;99.90
25112;DHT22;13092;51.996;4.458;2023-12-07T01:16:56;2.30;99.90
25112;DHT22;13092;51.996;4.458;2023-12-07T01:19:24;2.80;99.90
25112;DHT22;13092;51.996;4.458;2023-12-07T01:21:53;2.80;99.90
25112;DHT22;13092;51.996;4.458;2023-12-07T01:24:21;3.30;99.90
25112;DHT22;13092;51.996;4.458;2023-12-07T01:26:49;2.80;99.90
25112;DHT22;13092;51.996;4.458;2023-12-07T01:29:17;2.80;99.90
25112;DHT22;13092;51.996;4.458;2023-12-07T01:31:47;2.80;99.90
25112;DHT22;13092;51.996;4.458;2023-12-07T01:34:17;2.50;99.90
25112;DHT22;13092;51.996;4.458;2023-12-07T01:36:46;2.30;99.90
25112;DHT22;13092;51.996;4.458;2023-12-07T01:39:14;3.00;99.90
25112;DHT22;13092;51.996;4.458;2023-12-07T01:41:45;2.80;99.90
25112;DHT22;13092;51.996;4.458;2023-12-07T01:44:16;2.80;99.90
25112;DHT22;13092;51.996;4.458;2023-12-07T01:46:44;3.40;99.90
25112;DHT22;13092;51.996;4.458;2023-12-07T01:49:14;2.10;99.90
25112;DHT22;13092;51.996;4.458;2023-12-07T01:51:42;2.70;99.90
25112;DHT22;13092;51.996;4.458;2023-12-07T01:54:10;2.90;99.90
25112;DHT22;13092;51.996;4.458;2023-12-07T01:56:38;3.10;99.90
25112;DHT22;13092;51.996;4.458;2023-12-07T01:59:07;2.30;99.90
25112;DHT22;13092;51.996;4.458;2023-12-07T02:01:35;2.40;99.90
25112;DHT22;13092;51.996;4.458;2023-12-07T02:04:07;3.00;99.90
25112;DHT22;13092;51.996;4.458;2023-12-07T02:06:36;3.60;99.90
25112;DHT22;13092;51.996;4.458;2023-12-07T02:09:05;2.90;99.90
25112;DHT22;13092;51.996;4.458;2023-12-07T02:11:33;2.90;99.90
25112;DHT22;13092;51.996;4.458;2023-12-07T02:14:01;2.40;99.90
25112;DHT22;13092;51.996;4.458;2023-12-07T02:16:32;3.50;99.90
25112;DHT22;13092;51.996;4.458;2023-12-07T02:19:07;3.60;99.90
25112;DHT22;13092;51.996;4.458;2023-12-07T02:21:48;2.90;99.90
25112;DHT22;13092;51.996;4.458;2023-12-07T02:24:21;2.50;99.90
25112;DHT22;13092;51.996;4.458;2023-12-07T02:26:53;2.40;99.90
25112;DHT22;13092;51.996;4.458;2023-12-07T02:29:21;3.10;99.90
25112;DHT22;13092;51.996;4.458;2023-12-07T02:31:52;2.40;99.90
25112;DHT22;13092;51.996;4.458;2023-12-07T02:34:20;2.90;99.90
25112;DHT22;13092;51.996;4.458;2023-12-07T02:36:49;3.00;99.90
25112;DHT22;13092;51.996;4.458;2023-12-07T02:39:19;3.00;99.90
25112;DHT22;13092;51.996;4.458;2023-12-07T02:41:49;2.30;99.90
25112;DHT22;13092;51.996;4.458;2023-12-07T02:44:19;3.30;99.90
25112;DHT22;13092;51.996;4.458;2023-12-07T02:46:47;3.40;99.90
25112;DHT22;13092;51.996;4.458;2023-12-07T02:49:15;2.50;99.90
25112;DHT22;13092;51.996;4.458;2023-12-07T02:51:43;3.20;99.90
25112;DHT22;13092;51.996;4.458;2023-12-07T02:54:12;4.00;99.90
25112;DHT22;13092;51.996;4.458;2023-12-07T02:56:40;3.30;99.90
25112;DHT22;13092;51.996;4.458;2023-12-07T02:59:08;2.90;99.90
25112;DHT22;13092;51.996;4.458;2023-12-07T03:01:38;2.60;99.90
25112;DHT22;13092;51.996;4.458;2023-12-07T03:04:06;3.20;99.90
25112;DHT22;13092;51.996;4.458;2023-12-07T03:06:34;3.40;99.90
25112;DHT22;13092;51.996;4.458;2023-12-07T03:09:03;3.10;99.90
25112;DHT22;13092;51.996;4.458;2023-12-07T03:11:31;3.20;99.90
25112;DHT22;13092;51.996;4.458;2023-12-07T03:14:02;2.90;99.90
25112;DHT22;13092;51.996;4.458;2023-12-07T03:16:30;2.60;99.90
25112;DHT22;13092;51.996;4.458;2023-12-07T03:19:02;3.70;99.90
25112;DHT22;13092;51.996;4.458;2023-12-07T03:21:30;2.60;99.90
25112;DHT22;13092;51.996;4.458;2023-12-07T03:23:58;3.20;99.90
25112;DHT22;13092;51.996;4.458;2023-12-07T03:26:27;2.60;99.90
25112;DHT22;13092;51.996;4.458;2023-12-07T03:28:55;3.30;99.90
25112;DHT22;13092;51.996;4.458;2023-12-07T03:31:23;3.90;99.90
25112;DHT22;13092;51.996;4.458;2023-12-07T03:33:51;4.00;99.90
25112;DHT22;13092;51.996;4.458;2023-12-07T03:36:21;2.70;99.90
25112;DHT22;13092;51.996;4.458;2023-12-07T03:38:49;2.80;99.90
25112;DHT22;13092;51.996;4.458;2023-12-07T03:41:18;3.30;99.90
25112;DHT22;13092;51.996;4.458;2023-12-07T03:43:46;3.30;99.90
25112;DHT22;13092;51.996;4.458;2023-12-07T03:46:17;2.80;99.90
25112;DHT22;13092;51.996;4.458;2023-12-07T03:48:45;3.30;99.90
25112;DHT22;13092;51.996;4.458;2023-12-07T03:51:13;4.10;99.90
25112;DHT22;13092;51.996;4.458;2023-12-07T03:53:47;3.90;99.90
25112;DHT22;13092;51.996;4.458;2023-12-07T03:56:24;2.80;99.90
25112;DHT22;13092;51.996;4.458;2023-12-07T03:58:52;2.90;99.90
25112;DHT22;13092;51.996;4.458;2023-12-07T04:01:24;3.20;99.90
25112;DHT22;13092;51.996;4.458;2023-12-07T04:03:53;4.20;99.90
25112;DHT22;13092;51.996;4.458;2023-12-07T04:06:22;2.80;99.90
25112;DHT22;13092;51.996;4.458;2023-12-07T04:08:53;2.80;99.90
25112;DHT22;13092;51.996;4.458;2023-12-07T04:11:21;3.20;99.90
25112;DHT22;13092;51.996;4.458;2023-12-07T04:13:49;3.40;99.90
25112;DHT22;13092;51.996;4.458;2023-12-07T04:16:18;3.30;99.90
25112;DHT22;13092;51.996;4.458;2023-12-07T04:18:49;3.90;99.90
25112;DHT22;13092;51.996;4.458;2023-12-07T04:21:17;4.00;99.90
25112;DHT22;13092;51.996;4.458;2023-12-07T04:23:45;2.80;99.90
25112;DHT22;13092;51.996;4.458;2023-12-07T04:26:15;3.90;99.90
25112;DHT22;13092;51.996;4.458;2023-12-07T04:28:43;3.40;99.90
25112;DHT22;13092;51.996;4.458;2023-12-07T04:31:11;2.70;99.90
25112;DHT22;13092;51.996;4.458;2023-12-07T04:33:40;3.70;99.90
25112;DHT22;13092;51.996;4.458;2023-12-07T04:36:09;3.10;99.90
25112;DHT22;13092;51.996;4.458;2023-12-07T04:38:37;2.40;99.90
25112;DHT22;13092;51.996;4.458;2023-12-07T04:41:05;3.00;99.90
25112;DHT22;13092;51.996;4.458;2023-12-07T04:43:35;3.60;99.90
25112;DHT22;13092;51.996;4.458;2023-12-07T04:46:04;2.90;99.90
25112;DHT22;13092;51.996;4.458;2023-12-07T04:48:32;2.40;99.90
25112;DHT22;13092;51.996;4.458;2023-12-07T04:51:02;3.10;99.90
25112;DHT22;13092;51.996;4.458;2023-12-07T04:53:31;2.50;99.90
25112;DHT22;13092;51.996;4.458;2023-12-07T04:56:00;3.70;99.90
25112;DHT22;13092;51.996;4.458;2023-12-07T04:58:28;3.40;99.90
25112;DHT22;13092;51.996;4.458;2023-12-07T05:00:57;3.00;99.90
25112;DHT22;13092;51.996;4.458;2023-12-07T05:03:28;3.00;99.90
25112;DHT22;13092;51.996;4.458;2023-12-07T05:05:56;3.20;99.90
25112;DHT22;13092;51.996;4.458;2023-12-07T05:08:27;3.00;99.90
25112;DHT22;13092;51.996;4.458;2023-12-07T05:10:55;3.10;99.90
25112;DHT22;13092;51.996;4.458;2023-12-07T05:13:24;2.60;99.90
25112;DHT22;13092;51.996;4.458;2023-12-07T05:15:56;2.80;99.90
25112;DHT22;13092;51.996;4.458;2023-12-07T05:18:25;3.50;99.90
25112;DHT22;13092;51.996;4.458;2023-12-07T05:20:53;2.80;99.90
25112;DHT22;13092;51.996;4.458;2023-12-07T05:23:22;3.00;99.90
25112;DHT22;13092;51.996;4.458;2023-12-07T05:25:50;2.30;99.90
25112;DHT22;13092;51.996;4.458;2023-12-07T05:28:18;2.40;99.90
25112;DHT22;13092;51.996;4.458;2023-12-07T05:30:46;2.80;99.90
25112;DHT22;13092;51.996;4.458;2023-12-07T05:33:16;2.30;99.90
25112;DHT22;13092;51.996;4.458;2023-12-07T05:35:44;3.00;99.90
25112;DHT22;13092;51.996;4.458;2023-12-07T05:38:12;2.30;99.90
25112;DHT22;13092;51.996;4.458;2023-12-07T05:40:41;2.90;99.90
25112;DHT22;13092;51.996;4.458;2023-12-07T05:43:12;2.30;99.90
25112;DHT22;13092;51.996;4.458;2023-12-07T05:45:42;2.30;99.90
25112;DHT22;13092;51.996;4.458;2023-12-07T05:48:10;3.50;99.90
25112;DHT22;13092;51.996;4.458;2023-12-07T05:50:41;2.80;99.90
25112;DHT22;13092;51.996;4.458;2023-12-07T05:53:09;2.30;99.90
25112;DHT22;13092;51.996;4.458;2023-12-07T05:55:40;2.50;99.90
25112;DHT22;13092;51.996;4.458;2023-12-07T05:58:08;2.80;99.90
25112;DHT22;13092;51.996;4.458;2023-12-07T06:00:37;3.50;99.90
25112;DHT22;13092;51.996;4.458;2023-12-07T06:03:06;3.90;99.90
25112;DHT22;13092;51.996;4.458;2023-12-07T06:05:37;2.90;99.90
25112;DHT22;13092;51.996;4.458;2023-12-07T06:08:07;2.30;99.90
25112;DHT22;13092;51.996;4.458;2023-12-07T06:10:35;2.30;99.90
25112;DHT22;13092;51.996;4.458;2023-12-07T06:13:04;3.50;99.90
25112;DHT22;13092;51.996;4.458;2023-12-07T06:15:33;3.10;99.90
25112;DHT22;13092;51.996;4.458;2023-12-07T06:18:01;2.40;99.90
25112;DHT22;13092;51.996;4.458;2023-12-07T06:20:33;3.00;99.90
25112;DHT22;13092;51.996;4.458;2023-12-07T06:23:02;2.40;99.90
25112;DHT22;13092;51.996;4.458;2023-12-07T06:25:32;3.40;99.90
25112;DHT22;13092;51.996;4.458;2023-12-07T06:28:00;3.00;99.90
25112;DHT22;13092;51.996;4.458;2023-12-07T06:30:28;3.00;99.90
25112;DHT22;13092;51.996;4.458;2023-12-07T06:32:56;3.10;99.90
25112;DHT22;13092;51.996;4.458;2023-12-07T06:35:29;2.70;99.90
25112;DHT22;13092;51.996;4.458;2023-12-07T06:38:01;2.30;99.90
25112;DHT22;13092;51.996;4.458;2023-12-07T06:40:43;2.40;99.90
25112;DHT22;13092;51.996;4.458;2023-12-07T06:43:19;2.90;99.90
25112;DHT22;13092;51.996;4.458;2023-12-07T06:45:50;2.80;99.90
25112;DHT22;13092;51.996;4.458;2023-12-07T06:48:18;3.30;99.90
25112;DHT22;13092;51.996;4.458;2023-12-07T06:50:46;2.20;99.90
25112;DHT22;13092;51.996;4.458;2023-12-07T06:53:17;2.20;99.90
25112;DHT22;13092;51.996;4.458;2023-12-07T06:55:50;2.40;99.90
25112;DHT22;13092;51.996;4.458;2023-12-07T06:58:19;2.20;99.90
25112;DHT22;13092;51.996;4.458;2023-12-07T07:00:47;2.20;99.90
25112;DHT22;13092;51.996;4.458;2023-12-07T07:03:16;2.90;99.90
25112;DHT22;13092;51.996;4.458;2023-12-07T07:05:44;2.70;99.90
25112;DHT22;13092;51.996;4.458;2023-12-07T07:08:12;3.10;99.90
25112;DHT22;13092;51.996;4.458;2023-12-07T07:10:41;2.40;99.90
25112;DHT22;13092;51.996;4.458;2023-12-07T07:13:12;2.30;99.90
25112;DHT22;13092;51.996;4.458;2023-12-07T07:15:44;2.40;99.90
25112;DHT22;13092;51.996;4.458;2023-12-07T07:18:12;2.40;99.90
25112;DHT22;13092;51.996;4.458;2023-12-07T07:20:41;3.50;99.90
25112;DHT22;13092;51.996;4.458;2023-12-07T07:23:09;3.40;99.90
25112;DHT22;13092;51.996;4.458;2023-12-07T07:25:37;3.10;99.90
25112;DHT22;13092;51.996;4.458;2023-12-07T07:28:07;2.50;99.90
25112;DHT22;13092;51.996;4.458;2023-12-07T07:30:37;2.50;99.90
25112;DHT22;13092;51.996;4.458;2023-12-07T07:33:05;3.10;99.90
25112;DHT22;13092;51.996;4.458;2023-12-07T07:35:33;2.90;99.90
25112;DHT22;13092;51.996;4.458;2023-12-07T07:38:01;3.50;99.90
25112;DHT22;13092;51.996;4.458;2023-12-07T07:40:30;2.50;99.90
25112;DHT22;13092;51.996;4.458;2023-12-07T07:42:58;2.90;99.90
25112;DHT22;13092;51.996;4.458;2023-12-07T07:45:26;2.50;99.90
25112;DHT22;13092;51.996;4.458;2023-12-07T07:47:56;2.50;99.90
25112;DHT22;13092;51.996;4.458;2023-12-07T07:50:24;3.60;99.90
25112;DHT22;13092;51.996;4.458;2023-12-07T07:52:53;3.60;99.90
25112;DHT22;13092;51.996;4.458;2023-12-07T07:55:22;3.10;99.90
25112;DHT22;13092;51.996;4.458;2023-12-07T07:57:50;2.40;99.90
25112;DHT22;13092;51.996;4.458;2023-12-07T08:00:18;3.10;99.90
25112;DHT22;13092;51.996;4.458;2023-12-07T08:02:48;2.50;99.90
25112;DHT22;13092;51.996;4.458;2023-12-07T08:05:17;3.10;99.90
25112;DHT22;13092;51.996;4.458;2023-12-07T08:07:45;2.60;99.90
25112;DHT22;13092;51.996;4.458;2023-12-07T08:10:14;2.80;99.90
25112;DHT22;13092;51.996;4.458;2023-12-07T08:12:42;3.80;99.90
25112;DHT22;13092;51.996;4.458;2023-12-07T08:15:10;3.30;99.90
25112;DHT22;13092;51.996;4.458;2023-12-07T08:17:42;3.00;99.90
25112;DHT22;13092;51.996;4.458;2023-12-07T08:20:11;2.60;99.90
25112;DHT22;13092;51.996;4.458;2023-12-07T08:22:43;2.60;99.90
25112;DHT22;13092;51.996;4.458;2023-12-07T08:25:11;3.10;99.90
25112;DHT22;13092;51.996;4.458;2023-12-07T08:27:40;3.20;99.90
25112;DHT22;13092;51.996;4.458;2023-12-07T08:30:08;2.70;99.90
25112;DHT22;13092;51.996;4.458;2023-12-07T08:32:37;2.60;99.90
25112;DHT22;13092;51.996;4.458;2023-12-07T08:35:06;2.90;99.90
25112;DHT22;13092;51.996;4.458;2023-12-07T08:37:37;2.70;99.90
25112;DHT22;13092;51.996;4.458;2023-12-07T08:40:09;3.30;99.90
25112;DHT22;13092;51.996;4.458;2023-12-07T08:42:45;2.70;99.90
25112;DHT22;13092;51.996;4.458;2023-12-07T08:45:17;2.70;99.90
25112;DHT22;13092;51.996;4.458;2023-12-07T08:47:45;3.50;99.90
25112;DHT22;13092;51.996;4.458;2023-12-07T08:50:14;3.30;99.90
25112;DHT22;13092;51.996;4.458;2023-12-07T08:52:42;2.80;99.90
25112;DHT22;13092;51.996;4.458;2023-12-07T08:55:23;3.40;99.90
25112;DHT22;13092;51.996;4.458;2023-12-07T08:57:53;3.90;99.90
25112;DHT22;13092;51.996;4.458;2023-12-07T09:00:21;3.50;99.90
25112;DHT22;13092;51.996;4.458;2023-12-07T09:02:51;3.00;99.90
25112;DHT22;13092;51.996;4.458;2023-12-07T09:05:22;2.90;99.90
25112;DHT22;13092;51.996;4.458;2023-12-07T09:07:50;2.90;99.90
25112;DHT22;13092;51.996;4.458;2023-12-07T09:10:21;3.50;99.90
25112;DHT22;13092;51.996;4.458;2023-12-07T09:12:49;3.50;99.90
25112;DHT22;13092;51.996;4.458;2023-12-07T09:15:17;4.30;99.90
25112;DHT22;13092;51.996;4.458;2023-12-07T09:17:45;4.30;99.90
25112;DHT22;13092;51.996;4.458;2023-12-07T09:20:13;4.10;99.90
25112;DHT22;13092;51.996;4.458;2023-12-07T09:22:43;3.70;99.90
25112;DHT22;13092;51.996;4.458;2023-12-07T09:25:12;4.10;99.90
25112;DHT22;13092;51.996;4.458;2023-12-07T09:27:41;3.90;99.90
25112;DHT22;13092;51.996;4.458;2023-12-07T09:30:10;3.60;99.90
25112;DHT22;13092;51.996;4.458;2023-12-07T09:32:40;3.20;99.90
25112;DHT22;13092;51.996;4.458;2023-12-07T09:35:12;4.60;99.90
25112;DHT22;13092;51.996;4.458;2023-12-07T09:37:42;3.30;99.90
25112;DHT22;13092;51.996;4.458;2023-12-07T09:40:15;4.20;99.90
25112;DHT22;13092;51.996;4.458;2023-12-07T09:42:50;4.80;99.90
25112;DHT22;13092;51.996;4.458;2023-12-07T09:45:19;4.20;99.90
25112;DHT22;13092;51.996;4.458;2023-12-07T09:47:50;3.30;99.90
25112;DHT22;13092;51.996;4.458;2023-12-07T09:50:20;4.00;99.90
25112;DHT22;13092;51.996;4.458;2023-12-07T09:52:50;4.00;99.90
25112;DHT22;13092;51.996;4.458;2023-12-07T09:55:33;4.30;99.90
25112;DHT22;13092;51.996;4.458;2023-12-07T09:58:05;3.90;99.90
25112;DHT22;13092;51.996;4.458;2023-12-07T10:00:35;4.20;99.90
25112;DHT22;13092;51.996;4.458;2023-12-07T10:03:05;4.00;99.90
25112;DHT22;13092;51.996;4.458;2023-12-07T10:05:54;3.50;99.90
25112;DHT22;13092;51.996;4.458;2023-12-07T10:08:30;3.50;99.90
25112;DHT22;13092;51.996;4.458;2023-12-07T10:11:03;4.40;99.90
25112;DHT22;13092;51.996;4.458;2023-12-07T10:13:34;3.60;99.90
25112;DHT22;13092;51.996;4.458;2023-12-07T10:16:10;4.20;99.90
25112;DHT22;13092;51.996;4.458;2023-12-07T10:18:40;4.30;99.90
25112;DHT22;13092;51.996;4.458;2023-12-07T10:21:11;4.30;99.90
25112;DHT22;13092;51.996;4.458;2023-12-07T10:23:42;4.20;99.90
25112;DHT22;13092;51.996;4.458;2023-12-07T10:26:16;3.80;99.90
25112;DHT22;13092;51.996;4.458;2023-12-07T10:28:50;3.80;99.90
25112;DHT22;13092;51.996;4.458;2023-12-07T10:31:22;4.80;99.90
25112;DHT22;13092;51.996;4.458;2023-12-07T10:33:51;3.90;99.90
25112;DHT22;13092;51.996;4.458;2023-12-07T10:36:20;4.60;99.90
25112;DHT22;13092;51.996;4.458;2023-12-07T10:38:48;4.00;99.90
25112;DHT22;13092;51.996;4.458;2023-12-07T10:41:19;5.20;99.90
25112;DHT22;13092;51.996;4.458;2023-12-07T10:43:51;4.70;99.90
25112;DHT22;13092;51.996;4.458;2023-12-07T10:46:21;4.60;99.90
25112;DHT22;13092;51.996;4.458;2023-12-07T10:48:53;4.60;99.90
25112;DHT22;13092;51.996;4.458;2023-12-07T10:51:28;4.30;99.90
25112;DHT22;13092;51.996;4.458;2023-12-07T10:53:57;4.90;99.90
25112;DHT22;13092;51.996;4.458;2023-12-07T10:56:29;4.90;99.90
25112;DHT22;13092;51.996;4.458;2023-12-07T10:59:06;4.30;99.90
25112;DHT22;13092;51.996;4.458;2023-12-07T11:01:46;5.50;99.90
25112;DHT22;13092;51.996;4.458;2023-12-07T11:04:15;5.00;99.90
25112;DHT22;13092;51.996;4.458;2023-12-07T11:06:47;4.40;99.90
25112;DHT22;13092;51.996;4.458;2023-12-07T11:09:20;4.30;99.90
25112;DHT22;13092;51.996;4.458;2023-12-07T11:11:59;4.30;99.90
25112;DHT22;13092;51.996;4.458;2023-12-07T11:14:30;5.00;99.90
25112;DHT22;13092;51.996;4.458;2023-12-07T11:17:02;4.80;99.90
25112;DHT22;13092;51.996;4.458;2023-12-07T11:19:43;4.40;99.90
25112;DHT22;13092;51.996;4.458;2023-12-07T11:22:12;4.80;99.90
25112;DHT22;13092;51.996;4.458;2023-12-07T11:24:52;4.30;99.90
25112;DHT22;13092;51.996;4.458;2023-12-07T11:27:21;4.30;99.90
25112;DHT22;13092;51.996;4.458;2023-12-07T11:29:51;4.60;99.90
25112;DHT22;13092;51.996;4.458;2023-12-07T11:32:20;5.00;99.90
25112;DHT22;13092;51.996;4.458;2023-12-07T11:34:58;4.90;99.90
25112;DHT22;13092;51.996;4.458;2023-12-07T11:38:09;5.00;99.90
25112;DHT22;13092;51.996;4.458;2023-12-07T11:40:40;4.50;99.90
25112;DHT22;13092;51.996;4.458;2023-12-07T11:43:17;4.90;99.90
25112;DHT22;13092;51.996;4.458;2023-12-07T11:45:49;5.10;99.90
25112;DHT22;13092;51.996;4.458;2023-12-07T11:48:18;5.30;99.90
25112;DHT22;13092;51.996;4.458;2023-12-07T11:50:54;4.90;99.90
25112;DHT22;13092;51.996;4.458;2023-12-07T11:53:24;5.20;99.90
25112;DHT22;13092;51.996;4.458;2023-12-07T11:55:53;4.80;99.90
25112;DHT22;13092;51.996;4.458;2023-12-07T11:58:22;5.20;99.90
25112;DHT22;13092;51.996;4.458;2023-12-07T12:00:52;5.30;99.90
25112;DHT22;13092;51.996;4.458;2023-12-07T12:03:21;4.70;99.90
25112;DHT22;13092;51.996;4.458;2023-12-07T12:05:49;5.30;99.90
25112;DHT22;13092;51.996;4.458;2023-12-07T12:08:17;5.40;99.90
25112;DHT22;13092;51.996;4.458;2023-12-07T12:10:47;5.00;99.90
25112;DHT22;13092;51.996;4.458;2023-12-07T12:13:17;5.30;99.90
25112;DHT22;13092;51.996;4.458;2023-12-07T12:15:46;4.70;99.90
25112;DHT22;13092;51.996;4.458;2023-12-07T12:18:16;5.20;99.90
25112;DHT22;13092;51.996;4.458;2023-12-07T12:20:45;5.30;99.90
25112;DHT22;13092;51.996;4.458;2023-12-07T12:23:13;4.70;99.90
25112;DHT22;13092;51.996;4.458;2023-12-07T12:25:42;5.30;99.90
25112;DHT22;13092;51.996;4.458;2023-12-07T12:28:10;4.70;99.90
25112;DHT22;13092;51.996;4.458;2023-12-07T12:30:39;4.70;99.90
25112;DHT22;13092;51.996;4.458;2023-12-07T12:33:07;4.60;99.90
25112;DHT22;13092;51.996;4.458;2023-12-07T12:35:37;5.40;99.90
25112;DHT22;13092;51.996;4.458;2023-12-07T12:38:09;4.70;99.90
25112;DHT22;13092;51.996;4.458;2023-12-07T12:40:45;5.30;99.90
25112;DHT22;13092;51.996;4.458;2023-12-07T12:43:13;5.20;99.90
25112;DHT22;13092;51.996;4.458;2023-12-07T12:45:42;4.80;99.90
25112;DHT22;13092;51.996;4.458;2023-12-07T12:48:10;5.50;99.90
25112;DHT22;13092;51.996;4.458;2023-12-07T12:50:41;4.80;99.90
25112;DHT22;13092;51.996;4.458;2023-12-07T12:53:10;5.50;99.90
25112;DHT22;13092;51.996;4.458;2023-12-07T12:55:41;4.90;99.90
25112;DHT22;13092;51.996;4.458;2023-12-07T12:58:10;5.60;99.90
25112;DHT22;13092;51.996;4.458;2023-12-07T13:00:39;5.50;99.90
25112;DHT22;13092;51.996;4.458;2023-12-07T13:03:07;5.70;99.90
25112;DHT22;13092;51.996;4.458;2023-12-07T13:05:37;5.50;99.90
25112;DHT22;13092;51.996;4.458;2023-12-07T13:08:06;5.60;99.90
25112;DHT22;13092;51.996;4.458;2023-12-07T13:10:41;5.60;99.90
25112;DHT22;13092;51.996;4.458;2023-12-07T13:13:09;5.10;99.90
25112;DHT22;13092;51.996;4.458;2023-12-07T13:15:37;6.10;99.90
25112;DHT22;13092;51.996;4.458;2023-12-07T13:18:05;5.00;99.90
25112;DHT22;13092;51.996;4.458;2023-12-07T13:20:34;6.40;99.90
25112;DHT22;13092;51.996;4.458;2023-12-07T13:23:07;5.10;99.90
25112;DHT22;13092;51.996;4.458;2023-12-07T13:25:35;5.80;99.90
25112;DHT22;13092;51.996;4.458;2023-12-07T13:28:03;5.90;99.90
25112;DHT22;13092;51.996;4.458;2023-12-07T13:30:32;6.30;99.90
25112;DHT22;13092;51.996;4.458;2023-12-07T13:33:02;5.50;99.90
25112;DHT22;13092;51.996;4.458;2023-12-07T13:35:50;5.80;99.90
25112;DHT22;13092;51.996;4.458;2023-12-07T13:38:20;6.10;99.90
25112;DHT22;13092;51.996;4.458;2023-12-07T13:40:49;5.60;99.90
25112;DHT22;13092;51.996;4.458;2023-12-07T13:43:17;5.20;99.90
25112;DHT22;13092;51.996;4.458;2023-12-07T13:45:46;5.30;99.90
25112;DHT22;13092;51.996;4.458;2023-12-07T13:48:14;6.30;99.90
25112;DHT22;13092;51.996;4.458;2023-12-07T13:50:43;5.70;99.90
25112;DHT22;13092;51.996;4.458;2023-12-07T13:53:11;5.20;99.90
25112;DHT22;13092;51.996;4.458;2023-12-07T13:55:41;5.90;99.90
25112;DHT22;13092;51.996;4.458;2023-12-07T13:58:09;6.50;99.90
25112;DHT22;13092;51.996;4.458;2023-12-07T14:00:37;4.80;99.90
25112;DHT22;13092;51.996;4.458;2023-12-07T14:03:06;6.30;99.90
25112;DHT22;13092;51.996;4.458;2023-12-07T14:05:34;6.30;99.90
25112;DHT22;13092;51.996;4.458;2023-12-07T14:08:02;5.20;99.90
25112;DHT22;13092;51.996;4.458;2023-12-07T14:10:31;5.20;99.90
25112;DHT22;13092;51.996;4.458;2023-12-07T14:13:01;5.50;99.90
25112;DHT22;13092;51.996;4.458;2023-12-07T14:15:29;6.30;99.90
25112;DHT22;13092;51.996;4.458;2023-12-07T14:18:11;5.70;99.90
25112;DHT22;13092;51.996;4.458;2023-12-07T14:20:41;5.10;99.90
25112;DHT22;13092;51.996;4.458;2023-12-07T14:23:30;5.70;99.90
25112;DHT22;13092;51.996;4.458;2023-12-07T14:25:58;5.10;99.90
25112;DHT22;13092;51.996;4.458;2023-12-07T14:28:32;5.60;99.90
25112;DHT22;13092;51.996;4.458;2023-12-07T14:31:02;5.70;99.90
25112;DHT22;13092;51.996;4.458;2023-12-07T14:33:31;4.20;99.90
25112;DHT22;13092;51.996;4.458;2023-12-07T14:36:02;5.10;99.90
25112;DHT22;13092;51.996;4.458;2023-12-07T14:38:31;5.00;99.90
25112;DHT22;13092;51.996;4.458;2023-12-07T14:40:59;6.30;99.90
25112;DHT22;13092;51.996;4.458;2023-12-07T14:43:29;5.60;99.90
25112;DHT22;13092;51.996;4.458;2023-12-07T14:45:59;5.00;99.90
25112;DHT22;13092;51.996;4.458;2023-12-07T14:48:29;4.90;99.90
25112;DHT22;13092;51.996;4.458;2023-12-07T14:50:57;4.90;99.90
25112;DHT22;13092;51.996;4.458;2023-12-07T14:53:28;4.90;99.90
25112;DHT22;13092;51.996;4.458;2023-12-07T14:55:56;5.50;99.90
25112;DHT22;13092;51.996;4.458;2023-12-07T14:58:25;5.20;99.90
25112;DHT22;13092;51.996;4.458;2023-12-07T15:00:54;6.00;99.90
25112;DHT22;13092;51.996;4.458;2023-12-07T15:03:24;5.70;99.90
25112;DHT22;13092;51.996;4.458;2023-12-07T15:05:52;5.50;99.90
25112;DHT22;13092;51.996;4.458;2023-12-07T15:08:20;5.50;99.90
25112;DHT22;13092;51.996;4.458;2023-12-07T15:10:48;6.30;99.90
25112;DHT22;13092;51.996;4.458;2023-12-07T15:13:19;5.40;99.90
25112;DHT22;13092;51.996;4.458;2023-12-07T15:15:47;5.20;99.90
25112;DHT22;13092;51.996;4.458;2023-12-07T15:18:15;6.30;99.90
25112;DHT22;13092;51.996;4.458;2023-12-07T15:20:45;4.80;99.90
25112;DHT22;13092;51.996;4.458;2023-12-07T15:23:13;4.80;99.90
25112;DHT22;13092;51.996;4.458;2023-12-07T15:25:42;5.00;99.90
25112;DHT22;13092;51.996;4.458;2023-12-07T15:28:10;5.30;99.90
25112;DHT22;13092;51.996;4.458;2023-12-07T15:30:41;4.70;99.90
25112;DHT22;13092;51.996;4.458;2023-12-07T15:33:10;4.30;99.90
25112;DHT22;13092;51.996;4.458;2023-12-07T15:35:39;5.10;99.90
25112;DHT22;13092;51.996;4.458;2023-12-07T15:38:09;4.60;99.90
25112;DHT22;13092;51.996;4.458;2023-12-07T15:40:38;4.70;99.90
25112;DHT22;13092;51.996;4.458;2023-12-07T15:43:07;5.00;99.90
25112;DHT22;13092;51.996;4.458;2023-12-07T15:45:36;5.20;99.90
25112;DHT22;13092;51.996;4.458;2023-12-07T15:48:04;5.00;99.90
25112;DHT22;13092;51.996;4.458;2023-12-07T15:50:33;4.50;99.90
25112;DHT22;13092;51.996;4.458;2023-12-07T15:53:02;4.50;99.90
25112;DHT22;13092;51.996;4.458;2023-12-07T15:55:31;4.50;99.90
25112;DHT22;13092;51.996;4.458;2023-12-07T15:58:00;4.70;99.90
25112;DHT22;13092;51.996;4.458;2023-12-07T16:00:28;5.00;99.90